Time;durP1;ratioP1;P1;durP2;ratioP2;P2;SDS_P1;SDS_P2;PMS_P1;PMS_P2;Temp;Humidity;BMP_temperature;BMP_pressure;BME280_temperature;BME280_humidity;BME280_pressure;Samples;Min_cycle;Max_cycle;Signal;HPM_P1;HPM_P2
2022/06/10 00:01:18;;;;;;;5.07;3.83;;;13.80;99.90;;;;;;5051999;28;20238;-65
2022/06/10 00:03:49;;;;;;;7.00;3.90;;;13.70;99.90;;;;;;5052237;28;20255;-65
2022/06/10 00:06:17;;;;;;;6.87;4.80;;;13.80;99.90;;;;;;5052620;28;20228;-65
2022/06/10 00:08:47;;;;;;;6.30;4.40;;;13.70;99.90;;;;;;5056233;28;20242;-65
2022/06/10 00:11:16;;;;;;;6.53;4.03;;;13.70;99.90;;;;;;5058261;28;20691;-65
2022/06/10 00:13:46;;;;;;;9.00;4.50;;;13.70;99.90;;;;;;5056027;28;20230;-66
2022/06/10 00:16:16;;;;;;;8.10;5.40;;;13.60;99.90;;;;;;5048725;28;20228;-65
2022/06/10 00:18:44;;;;;;;7.33;4.70;;;13.60;99.90;;;;;;5032422;28;20223;-65
2022/06/10 00:21:16;;;;;;;11.17;5.40;;;13.60;99.90;;;;;;5032493;28;20343;-65
2022/06/10 00:23:44;;;;;;;9.00;5.37;;;13.60;99.90;;;;;;5042470;28;20321;-65
2022/06/10 00:26:14;;;;;;;7.60;5.07;;;13.60;99.90;;;;;;5055295;28;20220;-65
2022/06/10 00:28:43;;;;;;;9.30;4.97;;;13.60;99.90;;;;;;5051724;28;21195;-65
2022/06/10 00:31:11;;;;;;;7.70;5.27;;;13.60;99.90;;;;;;5051714;28;20242;-65
2022/06/10 00:33:40;;;;;;;8.60;5.33;;;13.50;99.90;;;;;;5053979;28;20227;-65
2022/06/10 00:36:10;;;;;;;9.00;5.77;;;13.50;99.90;;;;;;5053963;28;20711;-65
2022/06/10 00:38:39;;;;;;;8.13;5.17;;;13.50;99.90;;;;;;5054929;28;20218;-65
2022/06/10 00:41:08;;;;;;;7.80;4.97;;;13.50;99.90;;;;;;5072566;28;20697;-65
2022/06/10 00:43:36;;;;;;;6.47;4.97;;;13.50;99.90;;;;;;5056408;28;20231;-65
2022/06/10 00:46:22;;;;;;;7.43;4.63;;;13.50;99.90;;;;;;5055180;28;20746;-65
2022/06/10 00:48:57;;;;;;;6.53;4.60;;;13.40;99.90;;;;;;5032136;28;20258;-65
2022/06/10 00:51:32;;;;;;;8.37;4.90;;;13.40;99.90;;;;;;5034885;28;20611;-65
2022/06/10 00:54:08;;;;;;;10.17;4.83;;;13.40;99.90;;;;;;5061051;28;20702;-65
2022/06/10 00:56:39;;;;;;;6.23;4.87;;;13.40;99.90;;;;;;5052190;28;20231;-65
2022/06/10 00:59:14;;;;;;;7.53;4.70;;;13.30;99.90;;;;;;5051881;28;20233;-65
2022/06/10 01:01:43;;;;;;;9.63;4.87;;;13.40;99.90;;;;;;5051458;28;20245;-65
2022/06/10 01:04:12;;;;;;;8.73;4.73;;;13.30;99.90;;;;;;5056997;28;20223;-65
2022/06/10 01:06:42;;;;;;;5.33;4.30;;;13.30;99.90;;;;;;5051688;28;20775;-65
2022/06/10 01:09:13;;;;;;;7.37;4.60;;;13.40;99.90;;;;;;5061802;28;20263;-65
2022/06/10 01:12:06;;;;;;;4.87;4.43;;;13.30;99.90;;;;;;5071109;28;20354;-65
2022/06/10 01:14:52;;;;;;;7.07;4.50;;;13.30;99.90;;;;;;5055451;28;20228;-65
2022/06/10 01:17:33;;;;;;;7.20;4.83;;;13.30;99.90;;;;;;5058482;28;20234;-65
2022/06/10 01:20:15;;;;;;;12.63;5.20;;;13.30;99.90;;;;;;5055534;28;20280;-65
2022/06/10 01:23:18;;;;;;;6.60;4.20;;;13.30;99.90;;;;;;5063705;28;20256;-65
2022/06/10 01:26:27;;;;;;;7.03;4.50;;;13.30;99.90;;;;;;5060795;28;20278;-65
2022/06/10 01:29:28;;;;;;;6.13;4.53;;;13.20;99.90;;;;;;5019700;28;20239;-65
2022/06/10 01:32:02;;;;;;;6.97;4.50;;;13.10;99.90;;;;;;5034921;28;20296;-65
2022/06/10 01:34:39;;;;;;;7.27;4.40;;;13.00;99.90;;;;;;5048078;28;20234;-65
2022/06/10 01:37:13;;;;;;;6.80;4.50;;;13.00;99.90;;;;;;5059652;28;20235;-65
2022/06/10 01:39:48;;;;;;;7.50;4.37;;;13.10;99.90;;;;;;5064715;28;20309;-65
2022/06/10 01:42:23;;;;;;;7.03;4.80;;;13.00;99.90;;;;;;5061212;28;20255;-65
2022/06/10 01:44:59;;;;;;;6.67;4.57;;;13.10;99.90;;;;;;5061129;28;20242;-65
2022/06/10 01:47:37;;;;;;;5.30;4.50;;;13.00;99.90;;;;;;5056898;28;20582;-65
2022/06/10 01:50:13;;;;;;;6.93;4.60;;;13.00;99.90;;;;;;5054774;28;20330;-65
2022/06/10 01:52:48;;;;;;;4.87;4.33;;;13.00;99.90;;;;;;5063365;28;20698;-65
2022/06/10 01:55:21;;;;;;;10.40;5.10;;;13.00;99.90;;;;;;5053013;28;20270;-65
2022/06/10 01:57:57;;;;;;;5.60;5.00;;;12.90;99.90;;;;;;5053080;28;20707;-65
2022/06/10 02:00:28;;;;;;;5.23;4.70;;;13.00;99.90;;;;;;5054549;28;20210;-65
2022/06/10 02:03:07;;;;;;;7.90;5.73;;;13.00;99.90;;;;;;5033901;28;20240;-67
2022/06/10 02:05:40;;;;;;;8.90;5.90;;;12.90;99.90;;;;;;5042491;28;20699;-65
2022/06/10 02:08:14;;;;;;;7.57;5.90;;;12.80;99.90;;;;;;5034280;28;20230;-65
2022/06/10 02:10:47;;;;;;;6.63;5.87;;;12.80;99.90;;;;;;5027609;28;20654;-65
2022/06/10 02:13:19;;;;;;;7.87;5.80;;;12.90;99.90;;;;;;5034270;28;20235;-65
2022/06/10 02:15:52;;;;;;;8.37;6.13;;;12.90;99.90;;;;;;5033921;28;20282;-65
2022/06/10 02:18:31;;;;;;;7.97;5.83;;;12.80;99.90;;;;;;5034513;28;20252;-65
2022/06/10 02:21:03;;;;;;;8.93;5.60;;;12.80;99.90;;;;;;5034302;28;20772;-65
2022/06/10 02:23:36;;;;;;;8.10;5.67;;;12.70;99.90;;;;;;5041593;28;20413;-65
2022/06/10 02:26:06;;;;;;;7.60;5.37;;;12.70;99.90;;;;;;5033778;28;20235;-65
2022/06/10 02:28:39;;;;;;;8.07;5.87;;;12.70;99.90;;;;;;5034169;28;20238;-65
2022/06/10 02:31:13;;;;;;;6.53;5.20;;;12.80;99.90;;;;;;5034024;28;20232;-65
2022/06/10 02:33:42;;;;;;;6.73;5.87;;;12.70;99.90;;;;;;5035508;28;20234;-65
2022/06/10 02:36:21;;;;;;;6.47;5.20;;;12.60;99.90;;;;;;5044816;28;20708;-65
2022/06/10 02:38:56;;;;;;;7.93;5.87;;;12.70;99.90;;;;;;5026913;28;20584;-65
2022/06/10 02:41:33;;;;;;;9.57;5.97;;;12.70;99.90;;;;;;5034171;28;20227;-65
2022/06/10 02:44:08;;;;;;;9.07;6.00;;;12.70;99.90;;;;;;5040820;28;20233;-65
2022/06/10 02:46:41;;;;;;;8.13;6.07;;;12.60;99.90;;;;;;5041004;28;20560;-65
2022/06/10 02:49:13;;;;;;;6.47;5.33;;;12.70;99.90;;;;;;5033798;28;20326;-65
2022/06/10 02:51:41;;;;;;;6.50;5.77;;;12.70;99.90;;;;;;5037285;28;20265;-65
2022/06/10 02:54:15;;;;;;;8.90;5.43;;;12.60;99.90;;;;;;5037880;28;20230;-65
2022/06/10 02:56:43;;;;;;;6.97;5.77;;;12.60;99.90;;;;;;5028746;28;20425;-65
2022/06/10 03:02:15;;;;;;;6.73;5.37;;;12.70;99.90;;;;;;5053188;28;20243;-65
2022/06/10 03:04:53;;;;;;;7.50;5.53;;;12.70;99.90;;;;;;5037642;28;20222;-65
2022/06/10 03:07:32;;;;;;;9.40;6.00;;;12.70;99.90;;;;;;5050213;28;20306;-65
2022/06/10 03:10:12;;;;;;;8.03;5.63;;;12.70;99.90;;;;;;5042214;28;20227;-65
2022/06/10 03:12:48;;;;;;;7.43;5.60;;;12.70;99.90;;;;;;5053776;28;20234;-65
2022/06/10 03:15:27;;;;;;;7.70;5.60;;;12.60;99.90;;;;;;5034006;28;20262;-65
2022/06/10 03:18:07;;;;;;;5.93;5.30;;;12.60;99.90;;;;;;5034440;28;20698;-65
2022/06/10 03:20:41;;;;;;;5.73;4.97;;;12.60;99.90;;;;;;5038708;28;20258;-65
2022/06/10 03:23:17;;;;;;;6.77;5.93;;;12.70;99.90;;;;;;5035770;28;20230;-65
2022/06/10 03:25:48;;;;;;;7.47;5.50;;;12.60;99.90;;;;;;5036074;28;20309;-65
2022/06/10 03:28:25;;;;;;;6.97;5.50;;;12.70;99.90;;;;;;5042956;28;20714;-65
2022/06/10 03:31:01;;;;;;;9.67;6.03;;;12.70;99.90;;;;;;5052234;28;20239;-65
2022/06/10 03:33:34;;;;;;;8.60;6.17;;;12.70;99.90;;;;;;5043006;28;20231;-65
2022/06/10 03:36:06;;;;;;;7.33;5.77;;;12.70;99.90;;;;;;5034098;28;20930;-65
2022/06/10 03:38:41;;;;;;;9.00;6.00;;;12.80;99.90;;;;;;5044691;28;20259;-65
2022/06/10 03:41:17;;;;;;;7.77;6.03;;;12.80;99.90;;;;;;5035601;28;20224;-65
2022/06/10 03:43:46;;;;;;;7.33;5.73;;;12.80;99.90;;;;;;5033232;28;20318;-65
2022/06/10 03:46:16;;;;;;;6.33;5.50;;;12.90;99.90;;;;;;5033617;28;20635;-65
2022/06/10 03:48:47;;;;;;;7.97;5.90;;;12.90;99.90;;;;;;5036155;28;20289;-65
2022/06/10 03:51:19;;;;;;;7.57;6.20;;;12.90;99.90;;;;;;5030240;28;20314;-65
2022/06/10 03:53:48;;;;;;;8.80;5.73;;;13.00;99.90;;;;;;5029476;28;20236;-65
2022/06/10 03:56:21;;;;;;;9.47;6.07;;;13.00;99.90;;;;;;5036619;28;20235;-66
2022/06/10 03:58:49;;;;;;;9.73;5.87;;;13.00;99.90;;;;;;5044771;28;20254;-65
2022/06/10 04:01:18;;;;;;;9.30;5.83;;;13.10;99.90;;;;;;5040993;28;20230;-65
2022/06/10 04:03:47;;;;;;;9.67;6.50;;;13.10;99.90;;;;;;5047472;28;20239;-65
2022/06/10 04:06:18;;;;;;;6.73;5.57;;;13.20;99.90;;;;;;5049673;28;20226;-65
2022/06/10 04:09:06;;;;;;;8.20;5.63;;;13.30;99.90;;;;;;5051354;28;20326;-65
2022/06/10 04:11:34;;;;;;;7.13;6.03;;;13.40;99.90;;;;;;5051846;28;20237;-65
2022/06/10 04:14:02;;;;;;;8.50;6.40;;;13.40;99.90;;;;;;5047740;28;20591;-65
2022/06/10 04:16:30;;;;;;;10.00;6.40;;;13.40;99.90;;;;;;5052191;28;20240;-65
2022/06/10 04:18:59;;;;;;;8.10;5.67;;;13.50;99.90;;;;;;5052432;28;20557;-65
2022/06/10 04:21:28;;;;;;;9.70;6.17;;;13.50;99.90;;;;;;5052580;28;20730;-65
2022/06/10 04:23:56;;;;;;;7.03;6.20;;;13.60;99.90;;;;;;5048883;28;20231;-65
2022/06/10 04:26:25;;;;;;;7.20;5.37;;;13.70;99.90;;;;;;5052473;28;20571;-65
2022/06/10 04:28:53;;;;;;;8.73;6.53;;;13.80;99.90;;;;;;5051921;28;20699;-65
2022/06/10 04:31:21;;;;;;;7.80;5.40;;;13.90;99.90;;;;;;5044538;28;20250;-65
2022/06/10 04:33:50;;;;;;;9.37;5.23;;;13.90;99.90;;;;;;5028688;28;20221;-65
2022/06/10 04:36:20;;;;;;;10.03;5.50;;;14.00;99.90;;;;;;5032314;28;20745;-65
2022/06/10 04:38:49;;;;;;;6.03;5.43;;;14.00;99.90;;;;;;5031908;28;20236;-65
2022/06/10 04:41:18;;;;;;;7.60;4.83;;;14.30;99.90;;;;;;5032305;28;20466;-65
2022/06/10 04:43:46;;;;;;;9.10;5.57;;;14.30;99.90;;;;;;5032596;28;20373;-65
2022/06/10 04:46:30;;;;;;;9.80;4.93;;;14.50;99.90;;;;;;5035446;28;20315;-65
2022/06/10 04:48:59;;;;;;;9.77;5.53;;;14.60;99.90;;;;;;5033230;28;20236;-65
2022/06/10 04:51:27;;;;;;;6.77;4.60;;;14.70;99.90;;;;;;5036200;28;20684;-65
2022/06/10 04:53:57;;;;;;;10.30;5.40;;;14.90;99.90;;;;;;5032008;28;20237;-65
2022/06/10 04:56:25;;;;;;;9.20;5.53;;;14.90;99.90;;;;;;5032178;28;20242;-65
2022/06/10 04:58:53;;;;;;;9.03;4.93;;;14.90;99.90;;;;;;5035418;28;20225;-65
2022/06/10 05:01:21;;;;;;;8.50;4.53;;;15.10;99.90;;;;;;5041976;28;20242;-65
2022/06/10 05:03:53;;;;;;;8.47;4.53;;;15.30;99.90;;;;;;5051506;28;20227;-65
2022/06/10 05:06:21;;;;;;;9.07;5.03;;;15.50;99.90;;;;;;5055122;28;20239;-65
2022/06/10 05:08:50;;;;;;;6.30;4.33;;;15.50;99.90;;;;;;5055512;28;20224;-65
2022/06/10 05:11:19;;;;;;;5.40;4.10;;;15.60;99.90;;;;;;5055874;28;20228;-64
2022/06/10 05:13:48;;;;;;;4.63;3.70;;;15.90;99.90;;;;;;5051418;28;20231;-65
2022/06/10 05:16:22;;;;;;;7.50;4.13;;;16.20;99.90;;;;;;5055454;28;20224;-64
2022/06/10 05:18:50;;;;;;;8.63;4.37;;;16.20;99.90;;;;;;5055126;28;20254;-64
2022/06/10 05:21:18;;;;;;;7.23;3.93;;;16.30;99.90;;;;;;5055396;28;20800;-64
2022/06/10 05:23:47;;;;;;;8.63;3.80;;;16.50;99.90;;;;;;5053985;28;20834;-65
2022/06/10 05:26:16;;;;;;;6.83;3.80;;;16.70;99.90;;;;;;5055641;28;20228;-64
2022/06/10 05:28:49;;;;;;;9.53;3.73;;;16.90;99.90;;;;;;5055086;28;20252;-65
2022/06/10 05:31:18;;;;;;;8.57;3.43;;;16.90;99.90;;;;;;5055044;28;20232;-64
2022/06/10 05:36:32;;;;;;;6.37;3.57;;;17.30;99.90;;;;;;5046249;28;20225;-64
2022/06/10 05:39:00;;;;;;;7.13;3.10;;;17.40;99.90;;;;;;5050793;28;20229;-64
2022/06/10 05:44:15;;;;;;;6.77;2.97;;;17.80;99.90;;;;;;5035050;28;20274;-64
2022/06/10 05:46:44;;;;;;;5.53;3.03;;;17.80;99.90;;;;;;5036340;28;20228;-65
2022/06/10 05:49:12;;;;;;;6.43;2.90;;;17.80;99.90;;;;;;5030253;28;20233;-64
2022/06/10 05:51:41;;;;;;;7.67;3.27;;;17.90;99.90;;;;;;5031218;28;20224;-65
2022/06/10 05:54:09;;;;;;;5.73;2.97;;;18.10;99.90;;;;;;5024813;28;20236;-64
2022/06/10 05:56:37;;;;;;;7.37;2.83;;;18.10;99.90;;;;;;5033423;28;20239;-65
2022/06/10 05:59:06;;;;;;;7.77;3.00;;;18.40;99.90;;;;;;5035696;28;20226;-64
2022/06/10 06:01:35;;;;;;;7.63;3.20;;;18.60;99.90;;;;;;5032285;28;20232;-64
2022/06/10 06:04:04;;;;;;;7.27;2.80;;;18.80;99.90;;;;;;5028144;28;20641;-64
2022/06/10 06:06:32;;;;;;;6.63;2.60;;;19.10;99.90;;;;;;5034479;28;20229;-65
2022/06/10 06:09:00;;;;;;;10.50;3.30;;;19.20;99.90;;;;;;5033982;28;20621;-64
2022/06/10 06:11:28;;;;;;;6.00;2.47;;;19.40;99.90;;;;;;5036114;28;20223;-64
2022/06/10 06:13:57;;;;;;;5.03;2.50;;;19.30;99.90;;;;;;5027895;28;20293;-66
2022/06/10 06:16:26;;;;;;;7.43;2.40;;;19.40;99.90;;;;;;5033175;28;20234;-67
2022/06/10 06:18:55;;;;;;;7.13;2.67;;;19.50;99.90;;;;;;5033668;28;20607;-66
2022/06/10 06:21:23;;;;;;;5.57;2.10;;;19.40;99.90;;;;;;5034417;28;20785;-66
2022/06/10 06:23:52;;;;;;;4.77;2.13;;;19.50;99.90;;;;;;5030163;28;20293;-66
2022/06/10 06:26:20;;;;;;;6.70;2.53;;;19.70;99.90;;;;;;5033840;28;20220;-66
2022/06/10 06:28:48;;;;;;;6.67;2.03;;;20.00;99.90;;;;;;5033488;28;20227;-66
2022/06/10 06:31:16;;;;;;;6.47;2.00;;;20.20;99.90;;;;;;5040064;28;20698;-66
2022/06/10 06:33:44;;;;;;;4.47;2.00;;;20.40;99.90;;;;;;5049628;28;20599;-67
2022/06/10 06:36:18;;;;;;;7.47;2.53;;;20.40;99.90;;;;;;5053755;28;20288;-66
2022/06/10 06:38:47;;;;;;;5.93;2.10;;;20.50;99.90;;;;;;5053630;28;20235;-66
2022/06/10 06:41:15;;;;;;;5.57;1.90;;;20.70;99.90;;;;;;5053811;28;20227;-67
2022/06/10 06:43:43;;;;;;;6.43;2.07;;;20.90;99.90;;;;;;5049746;28;20900;-66
2022/06/10 06:46:13;;;;;;;6.67;2.17;;;21.30;99.90;;;;;;5046406;28;20228;-67
2022/06/10 06:48:42;;;;;;;6.10;1.93;;;21.20;99.90;;;;;;5045502;28;20230;-66
2022/06/10 06:51:10;;;;;;;6.97;2.10;;;21.30;99.90;;;;;;5053216;28;20259;-66
2022/06/10 06:53:40;;;;;;;9.00;2.53;;;21.40;99.90;;;;;;5049257;28;20238;-67
2022/06/10 06:56:09;;;;;;;4.80;1.77;;;21.50;99.90;;;;;;5053099;28;20243;-66
2022/06/10 06:58:37;;;;;;;5.37;1.80;;;21.30;99.90;;;;;;5052741;28;20258;-66
2022/06/10 07:01:05;;;;;;;5.13;1.90;;;21.60;99.90;;;;;;5048398;28;20244;-66
2022/06/10 07:03:33;;;;;;;5.47;1.80;;;21.90;99.90;;;;;;5032003;28;20647;-66
2022/06/10 07:06:01;;;;;;;5.50;2.17;;;22.20;99.90;;;;;;5025809;28;20651;-66
2022/06/10 07:08:32;;;;;;;5.73;2.07;;;22.20;99.90;;;;;;5033488;28;20704;-68
2022/06/10 07:11:03;;;;;;;4.23;1.80;;;22.10;99.90;;;;;;5032141;28;20700;-66
2022/06/10 07:13:31;;;;;;;5.57;1.60;;;22.30;99.90;;;;;;5029977;28;20246;-67
2022/06/10 07:16:00;;;;;;;4.97;1.90;;;22.50;99.90;;;;;;5034757;28;20224;-67
2022/06/10 07:18:29;;;;;;;5.50;1.63;;;22.30;99.90;;;;;;5020899;28;20802;-67
2022/06/10 07:20:58;;;;;;;8.53;1.83;;;22.20;99.90;;;;;;5018078;28;20337;-67
2022/06/10 07:23:27;;;;;;;3.73;1.60;;;22.40;99.90;;;;;;5015058;28;20717;-68
2022/06/10 07:25:56;;;;;;;7.43;1.60;;;22.50;99.90;;;;;;5017911;28;20651;-68
2022/06/10 07:28:26;;;;;;;6.17;2.20;;;23.00;99.90;;;;;;5015752;28;20223;-67
2022/06/10 07:30:55;;;;;;;5.23;1.70;;;23.10;99.90;;;;;;5019110;28;20786;-67
2022/06/10 07:33:24;;;;;;;7.87;1.90;;;23.10;99.90;;;;;;5017843;28;20240;-67
2022/06/10 07:35:52;;;;;;;5.83;1.87;;;23.20;99.90;;;;;;5018960;28;20392;-67
2022/06/10 07:38:20;;;;;;;6.80;1.70;;;23.40;99.90;;;;;;5015832;28;20611;-67
2022/06/10 07:43:42;;;;;;;5.70;1.70;;;23.60;99.90;;;;;;5014585;28;20228;-67
2022/06/10 07:46:15;;;;;;;5.97;1.73;;;23.90;99.90;;;;;;5021602;28;20251;-66
2022/06/10 07:48:44;;;;;;;7.67;1.87;;;23.80;99.90;;;;;;5019930;28;20311;-67
2022/06/10 07:51:13;;;;;;;8.43;2.60;;;24.10;99.90;;;;;;5021147;28;20232;-68
2022/06/10 07:53:41;;;;;;;6.30;1.60;;;24.10;99.90;;;;;;5017988;28;20236;-67
2022/06/10 07:56:13;;;;;;;6.90;1.80;;;24.20;99.90;;;;;;5022077;28;20891;-67
2022/06/10 07:58:43;;;;;;;4.63;1.63;;;24.20;99.90;;;;;;5019526;28;20243;-67
2022/06/10 08:01:12;;;;;;;5.83;1.87;;;24.10;99.90;;;;;;5021590;28;20881;-67
2022/06/10 08:03:48;;;;;;;4.50;1.40;;;24.40;99.90;;;;;;5019029;28;20224;-67
2022/06/10 08:06:18;;;;;;;7.80;2.63;;;24.70;99.90;;;;;;5017043;28;20244;-67
2022/06/10 08:08:46;;;;;;;4.30;1.70;;;24.40;99.90;;;;;;5019749;28;20292;-67
2022/06/10 08:11:15;;;;;;;5.13;1.70;;;24.80;99.90;;;;;;5019289;28;20245;-67
2022/06/10 08:13:44;;;;;;;6.67;1.57;;;24.90;99.90;;;;;;5020688;28;20237;-67
2022/06/10 08:16:13;;;;;;;7.33;2.30;;;25.10;99.90;;;;;;5029318;28;20243;-66
2022/06/10 08:18:42;;;;;;;4.30;1.80;;;25.20;99.90;;;;;;5029088;28;20295;-66
2022/06/10 08:24:14;;;;;;;5.60;1.57;;;25.40;99.90;;;;;;5005787;28;20234;-66
2022/06/10 08:26:42;;;;;;;7.43;1.73;;;25.60;99.90;;;;;;5019566;28;20228;-66
2022/06/10 08:29:18;;;;;;;6.33;1.40;;;25.30;99.90;;;;;;5032028;28;20225;-66
2022/06/10 08:31:46;;;;;;;6.37;1.70;;;25.40;99.90;;;;;;5031775;28;20269;-66
2022/06/10 08:34:15;;;;;;;6.87;1.63;;;25.50;99.90;;;;;;5028081;28;20318;-66
2022/06/10 08:36:43;;;;;;;4.10;1.40;;;25.50;99.90;;;;;;5026095;28;20262;-66
2022/06/10 08:39:11;;;;;;;6.60;1.87;;;25.50;99.90;;;;;;5029587;28;20217;-66
2022/06/10 08:42:01;;;;;;;7.87;2.37;;;25.40;99.90;;;;;;5029897;28;20256;-66
2022/06/10 08:44:35;;;;;;;5.70;1.53;;;25.40;99.90;;;;;;5024982;28;20247;-67
2022/06/10 08:47:20;;;;;;;5.97;2.17;;;25.50;99.90;;;;;;5029047;28;20257;-66
2022/06/10 08:50:21;;;;;;;6.50;1.73;;;25.70;99.90;;;;;;5028704;28;20226;-66
2022/06/10 08:53:01;;;;;;;6.70;1.63;;;25.90;99.90;;;;;;5016076;28;20236;-66
2022/06/10 08:55:46;;;;;;;5.67;1.70;;;26.10;99.90;;;;;;5012825;28;20272;-66
2022/06/10 08:58:18;;;;;;;7.10;1.90;;;26.50;99.90;;;;;;5016254;28;20242;-67
2022/06/10 09:00:58;;;;;;;7.63;2.17;;;26.30;99.90;;;;;;5015187;28;20326;-67
2022/06/10 09:03:35;;;;;;;8.50;2.50;;;25.90;99.90;;;;;;5018168;28;20255;-68
2022/06/10 09:06:07;;;;;;;8.50;2.10;;;25.40;99.90;;;;;;5019753;28;20235;-68
2022/06/10 09:08:39;;;;;;;4.93;1.90;;;25.40;99.90;;;;;;5015670;28;20289;-67
2022/06/10 09:11:17;;;;;;;7.63;2.20;;;25.10;99.90;;;;;;5011068;28;20632;-68
2022/06/10 09:13:50;;;;;;;5.53;1.87;;;24.90;99.90;;;;;;5011124;28;20296;-66
2022/06/10 09:16:25;;;;;;;5.90;1.90;;;25.30;99.90;;;;;;5015835;28;20227;-67
2022/06/10 09:19:03;;;;;;;6.50;2.10;;;25.70;99.90;;;;;;5016240;28;21045;-67
2022/06/10 09:21:41;;;;;;;6.87;2.20;;;25.30;99.90;;;;;;5012459;28;20255;-67
2022/06/10 09:24:15;;;;;;;6.73;2.13;;;25.10;99.90;;;;;;5016228;28;20353;-67
2022/06/10 09:26:47;;;;;;;7.97;1.97;;;24.70;99.90;;;;;;5018996;28;20230;-67
2022/06/10 09:29:16;;;;;;;7.77;2.33;;;24.50;99.90;;;;;;5019851;28;20237;-67
2022/06/10 09:31:55;;;;;;;7.03;2.30;;;24.70;99.90;;;;;;5019738;28;20233;-67
2022/06/10 09:34:33;;;;;;;5.50;2.00;;;24.80;99.90;;;;;;5019256;28;20254;-67
2022/06/10 09:37:09;;;;;;;7.00;2.43;;;25.30;99.90;;;;;;5023135;28;20287;-67
2022/06/10 09:42:45;;;;;;;5.50;2.20;;;25.30;99.90;;;;;;5022791;28;21321;-66
2022/06/10 09:45:20;;;;;;;7.23;2.20;;;24.60;99.90;;;;;;5016933;28;20238;-68
2022/06/10 09:48:00;;;;;;;5.13;2.20;;;24.40;99.90;;;;;;5019620;28;20348;-67
2022/06/10 09:50:32;;;;;;;6.97;2.30;;;24.40;99.90;;;;;;5016006;28;20645;-67
2022/06/10 09:53:23;;;;;;;6.97;2.00;;;24.40;99.90;;;;;;5018663;28;20230;-66
2022/06/10 09:56:25;;;;;;;6.70;2.20;;;24.50;99.90;;;;;;5017488;28;20312;-66
2022/06/10 09:59:07;;;;;;;8.63;2.17;;;25.00;99.90;;;;;;5017251;28;20238;-67
2022/06/10 10:01:41;;;;;;;5.63;1.90;;;25.40;99.90;;;;;;5015729;28;20321;-66
2022/06/10 10:04:26;;;;;;;6.57;1.97;;;25.60;99.90;;;;;;5018909;28;20984;-66
2022/06/10 10:07:01;;;;;;;7.23;2.50;;;26.10;99.90;;;;;;5021785;28;20231;-67
2022/06/10 10:09:44;;;;;;;4.53;1.70;;;26.90;99.90;;;;;;5023184;28;20607;-67
2022/06/10 10:12:23;;;;;;;6.10;2.20;;;27.20;99.90;;;;;;5021937;28;20241;-67
2022/06/10 10:15:01;;;;;;;6.80;2.60;;;27.30;99.90;;;;;;5019646;28;20662;-67
2022/06/10 10:17:56;;;;;;;6.37;2.10;;;26.90;99.90;;;;;;5020426;28;20239;-66
2022/06/10 10:20:38;;;;;;;5.60;2.10;;;27.00;99.90;;;;;;5017801;28;20606;-67
2022/06/10 10:23:13;;;;;;;7.10;2.60;;;27.30;99.90;;;;;;5018299;28;20321;-67
2022/06/10 10:25:44;;;;;;;5.10;2.20;;;27.50;99.90;;;;;;5017935;28;20925;-66
2022/06/10 10:28:18;;;;;;;6.63;2.30;;;27.40;99.90;;;;;;5018351;28;20243;-67
2022/06/10 10:30:57;;;;;;;4.80;1.90;;;27.50;99.90;;;;;;5017469;28;20231;-66
2022/06/10 10:33:25;;;;;;;5.43;2.43;;;27.90;99.90;;;;;;5037560;28;20587;-66
2022/06/10 10:35:57;;;;;;;4.97;2.17;;;27.70;99.90;;;;;;5039634;28;20223;-68
2022/06/10 10:38:35;;;;;;;7.23;2.50;;;27.00;99.90;;;;;;5041664;28;20734;-67
2022/06/10 10:41:28;;;;;;;7.60;2.50;;;26.60;99.90;;;;;;5039556;28;20317;-67
2022/06/10 10:44:00;;;;;;;4.77;2.30;;;26.70;99.90;;;;;;5039173;28;20326;-67
2022/06/10 10:46:32;;;;;;;6.07;2.77;;;26.60;99.90;;;;;;5040988;28;20248;-67
2022/06/10 10:49:04;;;;;;;6.73;2.53;;;26.70;99.90;;;;;;5039765;28;20324;-66
2022/06/10 10:51:39;;;;;;;5.80;2.50;;;27.00;99.90;;;;;;5039485;28;20662;-67
2022/06/10 10:54:28;;;;;;;5.93;2.27;;;27.20;99.90;;;;;;5037707;28;20238;-67
2022/06/10 10:56:58;;;;;;;5.40;1.93;;;27.00;99.90;;;;;;5038353;28;20683;-66
2022/06/10 10:59:33;;;;;;;6.70;2.40;;;26.80;99.90;;;;;;5038760;28;20226;-66
2022/06/10 11:02:03;;;;;;;6.80;3.00;;;26.60;99.90;;;;;;5023673;28;20326;-65
2022/06/10 11:04:33;;;;;;;5.67;2.57;;;26.10;99.90;;;;;;5017029;28;20231;-66
2022/06/10 11:07:14;;;;;;;6.43;2.63;;;26.20;99.90;;;;;;5021575;28;20243;-67
2022/06/10 11:10:08;;;;;;;5.40;3.20;;;26.60;99.90;;;;;;5020563;28;20592;-66
2022/06/10 11:12:37;;;;;;;8.20;3.00;;;26.40;99.90;;;;;;5020590;28;20227;-67
2022/06/10 11:15:17;;;;;;;6.63;2.60;;;26.30;99.90;;;;;;5020185;28;20722;-67
2022/06/10 11:17:48;;;;;;;6.73;2.57;;;26.10;99.90;;;;;;5020440;28;20580;-67
2022/06/10 11:20:27;;;;;;;5.80;2.50;;;25.80;99.90;;;;;;5015520;28;20240;-66
2022/06/10 11:26:05;;;;;;;7.43;2.27;;;25.80;99.90;;;;;;5057825;27;20721;-65
2022/06/10 11:28:38;;;;;;;8.43;2.80;;;25.70;99.90;;;;;;5058988;28;20230;-66
2022/06/10 11:31:19;;;;;;;4.63;2.60;;;25.60;99.90;;;;;;5054970;28;20694;-65
2022/06/10 11:33:50;;;;;;;5.07;2.37;;;26.00;99.90;;;;;;5058785;28;20233;-65
2022/06/10 11:36:25;;;;;;;5.23;2.63;;;26.40;99.90;;;;;;5060521;28;20802;-65
2022/06/10 11:39:07;;;;;;;5.83;2.90;;;26.40;99.90;;;;;;5059447;28;20339;-66
2022/06/10 11:41:37;;;;;;;5.83;3.37;;;25.90;99.90;;;;;;5056386;28;20249;-66
2022/06/10 11:44:12;;;;;;;8.57;3.60;;;25.60;99.90;;;;;;5059023;28;20233;-65
2022/06/10 11:46:48;;;;;;;7.30;3.23;;;25.40;99.90;;;;;;5060408;28;20255;-66
2022/06/10 11:49:24;;;;;;;7.60;3.07;;;25.30;99.90;;;;;;5059411;28;20697;-66
2022/06/10 11:51:58;;;;;;;9.70;3.50;;;25.40;99.90;;;;;;5057416;28;20251;-66
2022/06/10 11:54:34;;;;;;;6.97;3.07;;;25.40;99.90;;;;;;5058340;28;20227;-65
2022/06/10 12:00:07;;;;;;;4.10;2.00;;;25.80;99.90;;;;;;5043666;28;20349;-66
2022/06/10 12:02:42;;;;;;;3.80;1.40;;;25.90;99.90;;;;;;5037871;28;20242;-66
2022/06/10 12:05:21;;;;;;;3.20;1.50;;;25.90;99.90;;;;;;5037272;28;20238;-65
2022/06/10 12:08:01;;;;;;;3.00;1.10;;;25.70;99.90;;;;;;5037456;28;20239;-65
2022/06/10 12:10:43;;;;;;;2.90;1.23;;;25.70;99.90;;;;;;5034115;28;20242;-65
2022/06/10 12:13:14;;;;;;;4.33;1.40;;;25.60;99.90;;;;;;5033987;28;20250;-66
2022/06/10 12:15:49;;;;;;;4.87;1.60;;;25.50;99.90;;;;;;5036300;28;20229;-66
2022/06/10 12:18:18;;;;;;;5.30;1.67;;;25.80;99.90;;;;;;5037497;28;20289;-65
2022/06/10 12:20:50;;;;;;;4.77;1.57;;;26.00;99.90;;;;;;5033846;28;20576;-65
2022/06/10 12:23:24;;;;;;;3.93;1.53;;;25.90;99.90;;;;;;5039787;28;20300;-65
2022/06/10 12:26:02;;;;;;;3.90;1.73;;;25.80;99.90;;;;;;5043960;28;20247;-66
2022/06/10 12:28:43;;;;;;;6.40;1.70;;;25.70;99.90;;;;;;5045142;28;20273;-66
2022/06/10 12:31:41;;;;;;;5.77;1.60;;;25.70;99.90;;;;;;5032969;28;20244;-65
2022/06/10 12:34:17;;;;;;;4.63;1.60;;;25.70;99.90;;;;;;5015609;28;20230;-66
2022/06/10 12:36:57;;;;;;;5.33;1.57;;;25.30;99.90;;;;;;5005334;28;21310;-66
2022/06/10 12:39:29;;;;;;;3.67;1.40;;;25.30;99.90;;;;;;5003501;28;21011;-65
2022/06/10 12:42:04;;;;;;;4.80;1.50;;;25.30;99.90;;;;;;4999732;28;20822;-66
2022/06/10 12:44:39;;;;;;;2.70;1.20;;;25.40;99.90;;;;;;5002155;28;20242;-66
2022/06/10 12:47:13;;;;;;;1.93;1.07;;;25.60;99.90;;;;;;5004086;28;20235;-66
2022/06/10 12:49:44;;;;;;;4.87;1.50;;;25.70;99.90;;;;;;5005044;28;20246;-66
2022/06/10 12:52:27;;;;;;;2.53;1.23;;;25.40;99.90;;;;;;4998905;28;20232;-66
2022/06/10 12:55:00;;;;;;;2.93;1.30;;;25.10;99.90;;;;;;5002938;28;20785;-65
2022/06/10 12:57:40;;;;;;;3.83;1.40;;;24.80;99.90;;;;;;5005228;28;20249;-67
2022/06/10 13:00:38;;;;;;;3.70;1.60;;;24.60;99.90;;;;;;4999929;28;20232;-65
2022/06/10 13:03:32;;;;;;;2.87;1.50;;;24.60;99.90;;;;;;5001690;28;20329;-67
2022/06/10 13:06:23;;;;;;;6.37;1.87;;;24.60;99.90;;;;;;5002724;28;20254;-66
2022/06/10 13:08:55;;;;;;;4.93;2.23;;;24.40;99.90;;;;;;5002984;28;20702;-66
2022/06/10 13:11:48;;;;;;;2.73;2.47;;;24.40;99.90;;;;;;4997903;28;20351;-66
2022/06/10 13:14:35;;;;;;;4.93;2.50;;;24.20;99.90;;;;;;4988113;28;20243;-66
2022/06/10 13:17:20;;;;;;;5.53;2.70;;;24.10;99.90;;;;;;5004463;28;20233;-66
2022/06/10 13:20:22;;;;;;;4.47;2.30;;;23.80;99.90;;;;;;5004478;28;20271;-66
2022/06/10 13:23:11;;;;;;;4.47;3.13;;;23.60;99.90;;;;;;5001682;28;20284;-65
2022/06/10 13:25:40;;;;;;;3.63;2.63;;;23.30;99.90;;;;;;5002611;28;20722;-66
2022/06/10 13:28:23;;;;;;;3.73;2.23;;;23.50;99.90;;;;;;5003177;28;20233;-66
2022/06/10 13:31:01;;;;;;;4.70;2.23;;;23.90;99.90;;;;;;4998627;28;20630;-65
2022/06/10 13:33:31;;;;;;;5.17;2.07;;;23.90;99.90;;;;;;5010193;28;20348;-66
2022/06/10 13:36:00;;;;;;;3.07;1.60;;;23.80;99.90;;;;;;5008168;28;20240;-66
2022/06/10 13:38:33;;;;;;;3.60;1.77;;;24.10;99.90;;;;;;5009097;28;20769;-66
2022/06/10 13:43:55;;;;;;;3.93;1.70;;;24.70;99.90;;;;;;5006353;28;20602;-66
2022/06/10 13:46:27;;;;;;;4.30;2.37;;;24.60;99.90;;;;;;5007981;28;20946;-66